createdAt,value
2019-03-13T00:01:54.724Z,6.53
2019-03-13T00:07:49.703Z,6.48
2019-03-13T00:13:44.714Z,6.72
2019-03-13T00:19:39.735Z,7.91
2019-03-13T00:25:34.702Z,9.4
2019-03-13T00:31:29.701Z,12.6
2019-03-13T00:37:24.727Z,5.47
2019-03-13T00:43:19.734Z,5.93
2019-03-13T00:49:14.725Z,6.22
2019-03-13T00:55:09.733Z,9.21
2019-03-13T01:01:04.779Z,8.09
2019-03-13T01:06:59.773Z,6.01
2019-03-13T01:12:54.823Z,8.95
2019-03-13T01:18:49.785Z,6.95
2019-03-13T01:24:44.755Z,6.87
2019-03-13T01:30:39.800Z,7.8
2019-03-13T01:36:34.777Z,8.62
2019-03-13T01:42:29.812Z,6.92
2019-03-13T01:48:24.783Z,10.43
2019-03-13T01:54:19.820Z,8.3
2019-03-13T02:00:14.790Z,10.27
2019-03-13T02:06:09.778Z,12.4
2019-03-13T02:12:04.780Z,7.81
2019-03-13T02:17:59.791Z,6.88
2019-03-13T02:23:54.873Z,9.7
2019-03-13T02:29:49.825Z,9.03
2019-03-13T02:35:44.806Z,7.48
2019-03-13T02:41:39.775Z,5.17
2019-03-13T02:47:34.867Z,6.88
2019-03-13T02:53:29.866Z,5.66
2019-03-13T02:59:24.796Z,5.97
2019-03-13T03:05:19.808Z,7.49
2019-03-13T03:11:14.816Z,6.54
2019-03-13T03:17:09.819Z,7.48
2019-03-13T03:23:04.793Z,5.55
2019-03-13T03:28:59.812Z,5.81
2019-03-13T03:34:54.795Z,7.9
2019-03-13T03:40:49.823Z,7.19
2019-03-13T03:46:44.855Z,7.26
2019-03-13T03:52:39.861Z,3.83
2019-03-13T03:58:34.819Z,6.13
2019-03-13T04:04:29.873Z,6.31
2019-03-13T04:10:24.845Z,9.52
2019-03-13T04:16:19.837Z,8.3
2019-03-13T04:22:14.815Z,7.68
2019-03-13T04:28:09.904Z,4.65
2019-03-13T04:34:04.853Z,5.03
2019-03-13T04:39:59.909Z,4.44
2019-03-13T04:45:54.891Z,6.07
2019-03-13T04:51:49.839Z,8.19
2019-03-13T04:57:44.930Z,6.46
2019-03-13T05:03:39.886Z,8.06
2019-03-13T05:09:34.876Z,8.73
2019-03-13T05:15:29.874Z,8.83
2019-03-13T05:21:24.911Z,11.07
2019-03-13T05:27:19.881Z,11.41
2019-03-13T05:33:14.899Z,9.4
2019-03-13T05:39:09.871Z,7.92
2019-03-13T05:45:05.898Z,10.82
2019-03-13T05:50:59.892Z,10.39
2019-03-13T05:56:54.900Z,7.77
2019-03-13T06:02:49.885Z,7.6
2019-03-13T06:08:44.893Z,9.51
2019-03-13T06:14:39.920Z,14.79
2019-03-13T06:20:34.910Z,12.17
2019-03-13T06:26:29.919Z,14.43
2019-03-13T06:32:24.948Z,16.46
2019-03-13T06:38:19.939Z,25.46
2019-03-13T06:44:14.926Z,23.5
2019-03-13T06:50:09.951Z,38.99
2019-03-13T06:56:04.931Z,33.86
2019-03-13T07:01:59.930Z,26.76
2019-03-13T07:07:54.928Z,23.27
2019-03-13T07:13:49.941Z,28.81
2019-03-13T07:19:44.946Z,27.19
2019-03-13T07:25:39.947Z,30
2019-03-13T07:31:34.952Z,25.93
2019-03-13T07:37:29.959Z,25.56
2019-03-13T07:43:24.929Z,29.68
2019-03-13T07:49:19.951Z,31.55
2019-03-13T07:55:14.963Z,27.43
2019-03-13T08:01:10.002Z,28.74
2019-03-13T08:07:04.971Z,32.18
2019-03-13T08:12:59.977Z,31.14
2019-03-13T08:18:54.993Z,26.45
2019-03-13T08:24:50.015Z,28.17
2019-03-13T08:30:44.973Z,25.45
2019-03-13T08:36:40.773Z,30.54
2019-03-13T08:42:34.999Z,32.55
2019-03-13T08:48:29.969Z,29.51
2019-03-13T08:54:24.988Z,26.78
2019-03-13T09:00:20.050Z,27.02
2019-03-13T09:06:14.986Z,26.36
2019-03-13T09:12:10.046Z,23.91
2019-03-13T09:18:05.030Z,19.34
2019-03-13T09:24:00.009Z,19.77
2019-03-13T09:29:54.998Z,24.03
2019-03-13T09:35:50.000Z,23.47
2019-03-13T09:41:45.017Z,23.78
2019-03-13T09:47:40.046Z,27.18
2019-03-13T09:53:34.997Z,23.1
2019-03-13T09:59:42.314Z,21.44
2019-03-13T10:05:25.043Z,22.73
2019-03-13T10:11:20.039Z,30.9
2019-03-13T10:17:15.080Z,30
2019-03-13T10:23:10.091Z,27.9
2019-03-13T10:29:05.050Z,31.57
2019-03-13T10:35:00.126Z,31.14
2019-03-13T10:40:55.051Z,33.28
2019-03-13T10:46:50.043Z,28
2019-03-13T10:52:45.052Z,33.36
2019-03-13T10:58:40.102Z,36.7
2019-03-13T11:04:35.062Z,28.45
2019-03-13T11:10:30.057Z,33.57
2019-03-13T11:16:25.064Z,33.83
2019-03-13T11:22:20.067Z,31.47
2019-03-13T11:28:15.080Z,32.86
2019-03-13T11:34:10.082Z,32.8
2019-03-13T11:40:05.100Z,33.1
2019-03-13T11:46:00.110Z,30.59
2019-03-13T11:51:55.120Z,28.62
2019-03-13T11:57:50.086Z,33.33
2019-03-13T12:03:45.121Z,50.89
2019-03-13T12:09:40.121Z,53.29
2019-03-13T12:15:35.154Z,47.1
2019-03-13T12:21:30.136Z,59.39
2019-03-13T12:27:25.107Z,50.47
2019-03-13T12:33:20.133Z,50.19
2019-03-13T12:39:15.154Z,50.74
2019-03-13T12:45:10.151Z,51.51
2019-03-13T12:51:05.094Z,47.23
2019-03-13T12:57:00.119Z,49.5
2019-03-13T13:02:55.179Z,50.98
2019-03-13T13:08:50.123Z,40.86
2019-03-13T13:14:45.177Z,38.02
2019-03-13T13:20:40.188Z,40.34
2019-03-13T13:26:35.146Z,38.91
2019-03-13T13:32:30.164Z,202.55
2019-03-13T13:38:25.147Z,95.09
2019-03-13T13:44:20.205Z,43.78
2019-03-13T13:50:15.148Z,47.16
2019-03-13T13:56:10.144Z,39.94
2019-03-13T14:02:05.197Z,36.32
2019-03-13T14:08:00.167Z,23.66
2019-03-13T14:13:55.182Z,9.25
2019-03-13T14:19:50.171Z,7.96
2019-03-13T14:25:45.174Z,5.95
2019-03-13T14:31:40.156Z,8.32
2019-03-13T14:37:35.211Z,5.56
2019-03-13T14:43:30.200Z,10.18
2019-03-13T14:49:25.240Z,15.33
2019-03-13T14:55:20.188Z,17.43
2019-03-13T15:01:15.231Z,21.46
2019-03-13T15:07:10.191Z,25.93
2019-03-13T15:13:05.280Z,29.24
2019-03-13T15:19:00.205Z,23.83
2019-03-13T15:24:55.205Z,20.28
2019-03-13T15:30:50.210Z,9.5
2019-03-13T15:36:45.211Z,9.17
2019-03-13T15:42:40.217Z,6.42
2019-03-13T15:48:35.205Z,5.1
2019-03-13T15:54:30.228Z,4.5
2019-03-13T16:00:25.227Z,4.9
2019-03-13T16:06:20.230Z,8.64
2019-03-13T16:12:15.268Z,12.4
2019-03-13T16:18:10.227Z,17.38
2019-03-13T16:24:05.335Z,55.37
2019-03-13T16:30:00.439Z,28.71
2019-03-13T16:35:55.226Z,13.85
2019-03-13T16:41:50.261Z,12.84
2019-03-13T16:47:45.457Z,14.15
2019-03-13T16:53:40.278Z,11.1
2019-03-13T16:59:35.243Z,15.17
2019-03-13T17:05:30.306Z,17.57
2019-03-13T17:11:25.305Z,20.95
2019-03-13T17:17:20.253Z,20.8
2019-03-13T17:23:15.274Z,21
2019-03-13T17:29:10.291Z,31.94
2019-03-13T17:35:05.299Z,40.15
2019-03-13T17:41:00.295Z,38.22
2019-03-13T17:46:55.334Z,38.84
2019-03-13T17:52:50.317Z,44.9
2019-03-13T17:58:45.295Z,30.67
2019-03-13T18:04:40.303Z,32.13
2019-03-13T18:10:35.307Z,26.26
2019-03-13T18:16:30.295Z,26.9
2019-03-13T18:22:25.305Z,25.56
2019-03-13T18:28:20.350Z,25.88
2019-03-13T18:34:15.321Z,17.93
2019-03-13T18:40:10.338Z,9.2
2019-03-13T18:46:05.318Z,12.18
2019-03-13T18:52:00.322Z,8.8
2019-03-13T18:57:55.339Z,12.43
2019-03-13T19:03:50.357Z,16.47
2019-03-13T19:09:45.339Z,12.44
2019-03-13T19:15:40.607Z,13.16
2019-03-13T19:21:35.369Z,8.4
2019-03-13T19:27:30.368Z,8.2
2019-03-13T19:33:25.401Z,5.66
2019-03-13T19:39:22.563Z,6.07
2019-03-13T19:45:15.353Z,3.15
2019-03-13T19:51:10.415Z,24.61
2019-03-13T19:57:05.393Z,15.83
2019-03-13T20:03:00.732Z,15.18
2019-03-13T20:08:55.384Z,13.04
2019-03-13T20:14:50.393Z,6.6
2019-03-13T20:20:45.378Z,8.4
2019-03-13T20:26:40.375Z,6.55
2019-03-13T20:32:35.397Z,7.25
2019-03-13T20:38:30.409Z,13.4
2019-03-13T20:44:25.384Z,10.02
2019-03-13T20:50:20.392Z,8.68
2019-03-13T20:56:15.380Z,9.71
2019-03-13T21:02:10.405Z,19.6
2019-03-13T21:08:05.382Z,19.97
2019-03-13T21:14:00.471Z,11.51
2019-03-13T21:19:55.430Z,15.09
2019-03-13T21:25:50.463Z,14.34
2019-03-13T21:31:45.435Z,18.88
2019-03-13T21:37:40.423Z,17.75
2019-03-13T21:43:35.406Z,17.65
2019-03-13T21:49:30.426Z,21.72
2019-03-13T21:55:27.231Z,18.96
2019-03-13T22:01:20.833Z,22.22
2019-03-13T22:07:15.431Z,27.73
2019-03-13T22:13:10.429Z,24.84
2019-03-13T22:19:05.421Z,25.6
2019-03-13T22:25:00.440Z,25.24
2019-03-13T22:30:55.447Z,28.21
2019-03-13T22:36:50.457Z,28.43
2019-03-13T22:42:45.450Z,28.86
2019-03-13T22:48:40.426Z,26.59
2019-03-13T22:54:35.572Z,25.02
2019-03-13T23:00:30.474Z,25.68
2019-03-13T23:06:25.462Z,26.39
2019-03-13T23:12:20.486Z,29.08
2019-03-13T23:18:17.979Z,26.93
2019-03-13T23:24:10.498Z,34.94
2019-03-13T23:30:05.519Z,25.04
2019-03-13T23:36:00.483Z,25.03
2019-03-13T23:41:55.488Z,22.97
2019-03-13T23:47:50.499Z,24.34
2019-03-13T23:53:45.483Z,30.7
2019-03-13T23:59:40.531Z,34.34
